sensor_id;sensor_type;location;lat;lon;timestamp;P1;durP1;ratioP1;P2;durP2;ratioP2
23614;SDS011;11985;49.404;7.734;2023-12-29T00:00:49;10.68;;;5.53;;
23614;SDS011;11985;49.404;7.734;2023-12-29T00:05:52;10.40;;;5.88;;
23614;SDS011;11985;49.404;7.734;2023-12-29T00:10:53;13.52;;;5.93;;
23614;SDS011;11985;49.404;7.734;2023-12-29T00:15:55;9.55;;;5.70;;
23614;SDS011;11985;49.404;7.734;2023-12-29T00:20:59;8.80;;;5.28;;
23614;SDS011;11985;49.404;7.734;2023-12-29T00:26:00;8.82;;;5.45;;
23614;SDS011;11985;49.404;7.734;2023-12-29T00:31:02;8.70;;;5.63;;
23614;SDS011;11985;49.404;7.734;2023-12-29T00:36:06;7.93;;;5.63;;
23614;SDS011;11985;49.404;7.734;2023-12-29T00:41:08;9.57;;;5.38;;
23614;SDS011;11985;49.404;7.734;2023-12-29T00:46:10;10.23;;;5.88;;
23614;SDS011;11985;49.404;7.734;2023-12-29T00:51:17;10.98;;;6.88;;
23614;SDS011;11985;49.404;7.734;2023-12-29T00:56:18;14.10;;;6.85;;
23614;SDS011;11985;49.404;7.734;2023-12-29T01:01:21;10.77;;;6.93;;
23614;SDS011;11985;49.404;7.734;2023-12-29T01:06:24;9.88;;;6.70;;
23614;SDS011;11985;49.404;7.734;2023-12-29T01:11:25;11.18;;;7.18;;
23614;SDS011;11985;49.404;7.734;2023-12-29T01:16:27;11.43;;;6.68;;
23614;SDS011;11985;49.404;7.734;2023-12-29T01:21:30;10.77;;;6.22;;
23614;SDS011;11985;49.404;7.734;2023-12-29T01:26:36;9.07;;;6.03;;
23614;SDS011;11985;49.404;7.734;2023-12-29T01:31:38;10.10;;;5.43;;
23614;SDS011;11985;49.404;7.734;2023-12-29T01:36:41;6.53;;;4.20;;
23614;SDS011;11985;49.404;7.734;2023-12-29T01:41:43;9.00;;;4.10;;
23614;SDS011;11985;49.404;7.734;2023-12-29T01:46:44;8.32;;;4.60;;
23614;SDS011;11985;49.404;7.734;2023-12-29T01:51:49;8.55;;;4.38;;
23614;SDS011;11985;49.404;7.734;2023-12-29T01:56:52;6.93;;;3.97;;
23614;SDS011;11985;49.404;7.734;2023-12-29T02:01:57;7.38;;;3.80;;
23614;SDS011;11985;49.404;7.734;2023-12-29T02:07:00;5.47;;;3.30;;
23614;SDS011;11985;49.404;7.734;2023-12-29T02:12:02;9.23;;;3.70;;
23614;SDS011;11985;49.404;7.734;2023-12-29T02:17:06;6.47;;;3.13;;
23614;SDS011;11985;49.404;7.734;2023-12-29T02:22:13;8.32;;;3.47;;
23614;SDS011;11985;49.404;7.734;2023-12-29T02:27:25;6.30;;;3.50;;
23614;SDS011;11985;49.404;7.734;2023-12-29T02:32:38;12.88;;;3.88;;
23614;SDS011;11985;49.404;7.734;2023-12-29T02:37:42;5.17;;;3.13;;
23614;SDS011;11985;49.404;7.734;2023-12-29T02:42:46;5.15;;;3.28;;
23614;SDS011;11985;49.404;7.734;2023-12-29T02:47:48;7.18;;;3.83;;
23614;SDS011;11985;49.404;7.734;2023-12-29T02:52:50;6.43;;;3.95;;
23614;SDS011;11985;49.404;7.734;2023-12-29T02:57:53;4.72;;;3.53;;
23614;SDS011;11985;49.404;7.734;2023-12-29T03:02:55;10.57;;;4.70;;
23614;SDS011;11985;49.404;7.734;2023-12-29T03:07:56;7.10;;;4.70;;
23614;SDS011;11985;49.404;7.734;2023-12-29T03:12:59;10.45;;;4.28;;
23614;SDS011;11985;49.404;7.734;2023-12-29T03:18:02;6.15;;;4.53;;
23614;SDS011;11985;49.404;7.734;2023-12-29T03:23:04;8.02;;;4.38;;
23614;SDS011;11985;49.404;7.734;2023-12-29T03:28:07;6.40;;;4.03;;
23614;SDS011;11985;49.404;7.734;2023-12-29T03:33:09;8.68;;;4.45;;
23614;SDS011;11985;49.404;7.734;2023-12-29T03:38:10;8.48;;;5.00;;
23614;SDS011;11985;49.404;7.734;2023-12-29T03:43:13;6.18;;;4.28;;
23614;SDS011;11985;49.404;7.734;2023-12-29T03:48:15;5.97;;;4.13;;
23614;SDS011;11985;49.404;7.734;2023-12-29T03:53:16;11.93;;;4.10;;
23614;SDS011;11985;49.404;7.734;2023-12-29T03:58:20;5.22;;;3.90;;
23614;SDS011;11985;49.404;7.734;2023-12-29T04:03:22;9.80;;;4.60;;
23614;SDS011;11985;49.404;7.734;2023-12-29T04:08:23;4.95;;;3.63;;
23614;SDS011;11985;49.404;7.734;2023-12-29T04:13:28;5.05;;;3.60;;
23614;SDS011;11985;49.404;7.734;2023-12-29T04:18:30;6.43;;;3.60;;
23614;SDS011;11985;49.404;7.734;2023-12-29T04:23:31;5.78;;;3.75;;
23614;SDS011;11985;49.404;7.734;2023-12-29T04:28:34;8.35;;;4.18;;
23614;SDS011;11985;49.404;7.734;2023-12-29T04:33:36;8.23;;;3.70;;
23614;SDS011;11985;49.404;7.734;2023-12-29T04:38:38;7.60;;;3.85;;
23614;SDS011;11985;49.404;7.734;2023-12-29T04:43:42;8.05;;;4.65;;
23614;SDS011;11985;49.404;7.734;2023-12-29T04:48:43;11.68;;;3.65;;
23614;SDS011;11985;49.404;7.734;2023-12-29T04:53:45;4.90;;;3.67;;
23614;SDS011;11985;49.404;7.734;2023-12-29T04:58:48;7.32;;;3.80;;
23614;SDS011;11985;49.404;7.734;2023-12-29T05:03:50;9.40;;;3.42;;
23614;SDS011;11985;49.404;7.734;2023-12-29T05:08:52;10.23;;;3.50;;
23614;SDS011;11985;49.404;7.734;2023-12-29T05:13:55;4.70;;;3.08;;
23614;SDS011;11985;49.404;7.734;2023-12-29T05:18:56;4.57;;;3.03;;
23614;SDS011;11985;49.404;7.734;2023-12-29T05:23:58;7.70;;;3.03;;
23614;SDS011;11985;49.404;7.734;2023-12-29T05:29:01;3.13;;;2.03;;
23614;SDS011;11985;49.404;7.734;2023-12-29T05:34:03;6.38;;;2.78;;
23614;SDS011;11985;49.404;7.734;2023-12-29T05:39:05;4.20;;;3.38;;
23614;SDS011;11985;49.404;7.734;2023-12-29T05:44:09;5.07;;;2.80;;
23614;SDS011;11985;49.404;7.734;2023-12-29T05:49:10;4.32;;;2.90;;
23614;SDS011;11985;49.404;7.734;2023-12-29T05:54:12;4.90;;;2.45;;
23614;SDS011;11985;49.404;7.734;2023-12-29T05:59:15;4.53;;;2.67;;
23614;SDS011;11985;49.404;7.734;2023-12-29T06:04:17;5.40;;;2.60;;
23614;SDS011;11985;49.404;7.734;2023-12-29T06:09:18;4.47;;;2.50;;
23614;SDS011;11985;49.404;7.734;2023-12-29T06:14:21;6.10;;;2.75;;
23614;SDS011;11985;49.404;7.734;2023-12-29T06:19:23;5.57;;;2.42;;
23614;SDS011;11985;49.404;7.734;2023-12-29T06:24:25;4.97;;;2.45;;
23614;SDS011;11985;49.404;7.734;2023-12-29T06:29:28;6.18;;;2.70;;
23614;SDS011;11985;49.404;7.734;2023-12-29T06:34:30;5.72;;;3.45;;
23614;SDS011;11985;49.404;7.734;2023-12-29T06:39:32;5.88;;;2.92;;
23614;SDS011;11985;49.404;7.734;2023-12-29T06:44:35;8.50;;;3.00;;
23614;SDS011;11985;49.404;7.734;2023-12-29T06:49:36;4.32;;;2.88;;
23614;SDS011;11985;49.404;7.734;2023-12-29T06:54:38;5.80;;;2.13;;
23614;SDS011;11985;49.404;7.734;2023-12-29T06:59:42;6.88;;;3.00;;
23614;SDS011;11985;49.404;7.734;2023-12-29T07:04:44;2.58;;;1.70;;
23614;SDS011;11985;49.404;7.734;2023-12-29T07:09:46;2.58;;;1.40;;
23614;SDS011;11985;49.404;7.734;2023-12-29T07:14:49;5.93;;;1.70;;
23614;SDS011;11985;49.404;7.734;2023-12-29T07:19:51;5.30;;;1.40;;
23614;SDS011;11985;49.404;7.734;2023-12-29T07:24:53;6.65;;;2.20;;
23614;SDS011;11985;49.404;7.734;2023-12-29T07:29:56;5.13;;;2.10;;
23614;SDS011;11985;49.404;7.734;2023-12-29T07:34:58;4.97;;;2.10;;
23614;SDS011;11985;49.404;7.734;2023-12-29T07:40:00;6.05;;;2.15;;
23614;SDS011;11985;49.404;7.734;2023-12-29T07:45:03;2.92;;;2.08;;
23614;SDS011;11985;49.404;7.734;2023-12-29T07:50:06;4.70;;;2.15;;
23614;SDS011;11985;49.404;7.734;2023-12-29T07:55:08;7.13;;;2.80;;
23614;SDS011;11985;49.404;7.734;2023-12-29T08:00:11;7.75;;;2.70;;
23614;SDS011;11985;49.404;7.734;2023-12-29T08:05:14;6.70;;;2.87;;
23614;SDS011;11985;49.404;7.734;2023-12-29T08:10:16;6.95;;;3.05;;
23614;SDS011;11985;49.404;7.734;2023-12-29T08:15:20;6.63;;;2.53;;
23614;SDS011;11985;49.404;7.734;2023-12-29T08:20:21;6.18;;;2.47;;
23614;SDS011;11985;49.404;7.734;2023-12-29T08:25:24;4.43;;;2.17;;
23614;SDS011;11985;49.404;7.734;2023-12-29T08:30:27;5.05;;;2.38;;
23614;SDS011;11985;49.404;7.734;2023-12-29T08:35:29;5.05;;;2.17;;
23614;SDS011;11985;49.404;7.734;2023-12-29T08:40:30;5.50;;;2.42;;
23614;SDS011;11985;49.404;7.734;2023-12-29T08:45:33;6.07;;;2.45;;
23614;SDS011;11985;49.404;7.734;2023-12-29T08:50:35;6.18;;;2.60;;
23614;SDS011;11985;49.404;7.734;2023-12-29T08:55:37;6.63;;;2.60;;
23614;SDS011;11985;49.404;7.734;2023-12-29T09:00:40;6.20;;;2.38;;
23614;SDS011;11985;49.404;7.734;2023-12-29T09:05:41;3.58;;;2.00;;
23614;SDS011;11985;49.404;7.734;2023-12-29T09:10:43;4.03;;;1.73;;
23614;SDS011;11985;49.404;7.734;2023-12-29T09:15:46;4.45;;;1.98;;
23614;SDS011;11985;49.404;7.734;2023-12-29T09:20:48;3.38;;;1.90;;
23614;SDS011;11985;49.404;7.734;2023-12-29T09:25:50;3.65;;;1.92;;
23614;SDS011;11985;49.404;7.734;2023-12-29T09:30:52;4.05;;;1.80;;
23614;SDS011;11985;49.404;7.734;2023-12-29T09:35:54;3.55;;;1.75;;
23614;SDS011;11985;49.404;7.734;2023-12-29T09:40:57;3.35;;;1.60;;
23614;SDS011;11985;49.404;7.734;2023-12-29T09:51:04;3.35;;;1.70;;
23614;SDS011;11985;49.404;7.734;2023-12-29T09:56:07;2.65;;;1.45;;
23614;SDS011;11985;49.404;7.734;2023-12-29T10:01:11;5.18;;;1.73;;
23614;SDS011;11985;49.404;7.734;2023-12-29T10:06:12;5.07;;;1.40;;
23614;SDS011;11985;49.404;7.734;2023-12-29T10:11:18;1.60;;;1.40;;
23614;SDS011;11985;49.404;7.734;2023-12-29T10:16:27;4.30;;;1.70;;
23614;SDS011;11985;49.404;7.734;2023-12-29T10:21:33;3.03;;;1.52;;
23614;SDS011;11985;49.404;7.734;2023-12-29T10:26:41;6.88;;;2.10;;
23614;SDS011;11985;49.404;7.734;2023-12-29T10:31:45;2.75;;;1.70;;
23614;SDS011;11985;49.404;7.734;2023-12-29T10:36:47;5.13;;;2.13;;
23614;SDS011;11985;49.404;7.734;2023-12-29T10:41:50;2.65;;;1.30;;
23614;SDS011;11985;49.404;7.734;2023-12-29T10:46:53;3.10;;;1.70;;
23614;SDS011;11985;49.404;7.734;2023-12-29T10:51:54;2.20;;;1.35;;
23614;SDS011;11985;49.404;7.734;2023-12-29T10:57:00;4.30;;;1.70;;
23614;SDS011;11985;49.404;7.734;2023-12-29T11:02:04;3.65;;;1.50;;
23614;SDS011;11985;49.404;7.734;2023-12-29T11:07:08;5.43;;;1.60;;
23614;SDS011;11985;49.404;7.734;2023-12-29T11:12:12;3.03;;;1.10;;
23614;SDS011;11985;49.404;7.734;2023-12-29T11:17:16;3.70;;;1.30;;
23614;SDS011;11985;49.404;7.734;2023-12-29T11:22:18;4.45;;;1.17;;
23614;SDS011;11985;49.404;7.734;2023-12-29T11:27:22;3.33;;;1.33;;
23614;SDS011;11985;49.404;7.734;2023-12-29T11:32:27;3.20;;;1.10;;
23614;SDS011;11985;49.404;7.734;2023-12-29T11:37:43;3.10;;;1.40;;
23614;SDS011;11985;49.404;7.734;2023-12-29T11:42:58;4.82;;;1.25;;
23614;SDS011;11985;49.404;7.734;2023-12-29T11:48:08;4.53;;;1.63;;
23614;SDS011;11985;49.404;7.734;2023-12-29T11:53:11;2.05;;;1.08;;
23614;SDS011;11985;49.404;7.734;2023-12-29T11:58:32;5.32;;;2.17;;
23614;SDS011;11985;49.404;7.734;2023-12-29T12:03:35;2.25;;;1.63;;
23614;SDS011;11985;49.404;7.734;2023-12-29T12:08:38;2.85;;;1.77;;
23614;SDS011;11985;49.404;7.734;2023-12-29T12:13:42;4.25;;;1.63;;
23614;SDS011;11985;49.404;7.734;2023-12-29T12:18:46;3.28;;;1.60;;
23614;SDS011;11985;49.404;7.734;2023-12-29T12:23:48;4.05;;;1.85;;
23614;SDS011;11985;49.404;7.734;2023-12-29T12:28:51;3.90;;;2.20;;
23614;SDS011;11985;49.404;7.734;2023-12-29T12:33:55;2.10;;;1.20;;
23614;SDS011;11985;49.404;7.734;2023-12-29T12:38:57;1.90;;;1.50;;
23614;SDS011;11985;49.404;7.734;2023-12-29T12:44:01;2.50;;;1.55;;
23614;SDS011;11985;49.404;7.734;2023-12-29T12:49:11;3.92;;;1.38;;
23614;SDS011;11985;49.404;7.734;2023-12-29T12:54:15;4.25;;;1.40;;
23614;SDS011;11985;49.404;7.734;2023-12-29T12:59:19;4.50;;;2.30;;
23614;SDS011;11985;49.404;7.734;2023-12-29T13:04:23;2.47;;;1.80;;
23614;SDS011;11985;49.404;7.734;2023-12-29T13:09:25;1.90;;;1.60;;
23614;SDS011;11985;49.404;7.734;2023-12-29T13:14:27;4.80;;;1.90;;
23614;SDS011;11985;49.404;7.734;2023-12-29T13:19:30;3.20;;;1.88;;
23614;SDS011;11985;49.404;7.734;2023-12-29T13:29:36;2.80;;;1.60;;
23614;SDS011;11985;49.404;7.734;2023-12-29T13:34:42;2.72;;;1.48;;
23614;SDS011;11985;49.404;7.734;2023-12-29T13:39:53;5.13;;;1.95;;
23614;SDS011;11985;49.404;7.734;2023-12-29T13:44:58;3.80;;;1.60;;
23614;SDS011;11985;49.404;7.734;2023-12-29T13:50:03;3.05;;;1.63;;
23614;SDS011;11985;49.404;7.734;2023-12-29T13:55:06;5.32;;;1.25;;
23614;SDS011;11985;49.404;7.734;2023-12-29T14:00:18;4.60;;;1.48;;
23614;SDS011;11985;49.404;7.734;2023-12-29T14:05:27;5.95;;;1.60;;
23614;SDS011;11985;49.404;7.734;2023-12-29T14:10:29;4.00;;;1.10;;
23614;SDS011;11985;49.404;7.734;2023-12-29T14:15:33;4.13;;;1.33;;
23614;SDS011;11985;49.404;7.734;2023-12-29T14:20:38;4.45;;;1.30;;
23614;SDS011;11985;49.404;7.734;2023-12-29T14:25:40;5.20;;;1.60;;
23614;SDS011;11985;49.404;7.734;2023-12-29T14:30:43;3.22;;;1.35;;
23614;SDS011;11985;49.404;7.734;2023-12-29T14:35:46;3.90;;;1.35;;
23614;SDS011;11985;49.404;7.734;2023-12-29T14:40:48;2.60;;;1.30;;
23614;SDS011;11985;49.404;7.734;2023-12-29T14:45:50;4.88;;;1.30;;
23614;SDS011;11985;49.404;7.734;2023-12-29T14:50:54;6.47;;;1.60;;
23614;SDS011;11985;49.404;7.734;2023-12-29T15:00:59;4.30;;;1.10;;
23614;SDS011;11985;49.404;7.734;2023-12-29T15:06:04;5.10;;;1.40;;
23614;SDS011;11985;49.404;7.734;2023-12-29T15:11:07;9.05;;;1.85;;
23614;SDS011;11985;49.404;7.734;2023-12-29T15:16:09;9.48;;;1.40;;
23614;SDS011;11985;49.404;7.734;2023-12-29T15:21:12;8.48;;;1.23;;
23614;SDS011;11985;49.404;7.734;2023-12-29T15:26:14;3.85;;;1.25;;
23614;SDS011;11985;49.404;7.734;2023-12-29T15:31:17;4.60;;;1.23;;
23614;SDS011;11985;49.404;7.734;2023-12-29T15:36:21;3.78;;;1.38;;
23614;SDS011;11985;49.404;7.734;2023-12-29T15:41:22;9.10;;;1.50;;
23614;SDS011;11985;49.404;7.734;2023-12-29T15:46:24;5.35;;;1.63;;
23614;SDS011;11985;49.404;7.734;2023-12-29T15:51:27;3.60;;;1.52;;
23614;SDS011;11985;49.404;7.734;2023-12-29T15:56:30;2.72;;;1.15;;
23614;SDS011;11985;49.404;7.734;2023-12-29T16:01:34;1.90;;;1.08;;
23614;SDS011;11985;49.404;7.734;2023-12-29T16:06:37;4.50;;;1.52;;
23614;SDS011;11985;49.404;7.734;2023-12-29T16:11:39;9.60;;;2.08;;
23614;SDS011;11985;49.404;7.734;2023-12-29T16:16:41;5.68;;;2.42;;
23614;SDS011;11985;49.404;7.734;2023-12-29T16:21:44;3.75;;;2.03;;
23614;SDS011;11985;49.404;7.734;2023-12-29T16:26:46;4.05;;;2.35;;
23614;SDS011;11985;49.404;7.734;2023-12-29T16:31:47;6.60;;;1.90;;
23614;SDS011;11985;49.404;7.734;2023-12-29T16:36:55;7.22;;;2.38;;
23614;SDS011;11985;49.404;7.734;2023-12-29T16:41:58;7.20;;;2.38;;
23614;SDS011;11985;49.404;7.734;2023-12-29T16:47:02;5.47;;;1.77;;
23614;SDS011;11985;49.404;7.734;2023-12-29T16:52:06;5.35;;;1.77;;
23614;SDS011;11985;49.404;7.734;2023-12-29T16:57:08;5.20;;;1.48;;
23614;SDS011;11985;49.404;7.734;2023-12-29T17:02:10;4.82;;;1.58;;
23614;SDS011;11985;49.404;7.734;2023-12-29T17:07:13;1.67;;;1.17;;
23614;SDS011;11985;49.404;7.734;2023-12-29T17:12:14;4.85;;;1.50;;
23614;SDS011;11985;49.404;7.734;2023-12-29T17:17:16;1.52;;;1.00;;
23614;SDS011;11985;49.404;7.734;2023-12-29T17:22:19;6.00;;;1.50;;
23614;SDS011;11985;49.404;7.734;2023-12-29T17:27:21;2.58;;;1.17;;
23614;SDS011;11985;49.404;7.734;2023-12-29T17:32:22;6.30;;;1.52;;
23614;SDS011;11985;49.404;7.734;2023-12-29T17:37:25;4.35;;;1.30;;
23614;SDS011;11985;49.404;7.734;2023-12-29T17:42:32;6.20;;;1.25;;
23614;SDS011;11985;49.404;7.734;2023-12-29T17:47:33;3.85;;;1.20;;
23614;SDS011;11985;49.404;7.734;2023-12-29T17:52:36;8.23;;;1.65;;
23614;SDS011;11985;49.404;7.734;2023-12-29T17:57:38;2.92;;;1.30;;
23614;SDS011;11985;49.404;7.734;2023-12-29T18:02:41;4.65;;;1.60;;
23614;SDS011;11985;49.404;7.734;2023-12-29T18:07:44;2.13;;;1.27;;
23614;SDS011;11985;49.404;7.734;2023-12-29T18:12:45;3.60;;;1.40;;
23614;SDS011;11985;49.404;7.734;2023-12-29T18:17:47;1.90;;;1.08;;
23614;SDS011;11985;49.404;7.734;2023-12-29T18:22:50;9.75;;;2.10;;
23614;SDS011;11985;49.404;7.734;2023-12-29T18:27:51;4.97;;;2.00;;
23614;SDS011;11985;49.404;7.734;2023-12-29T18:32:53;3.35;;;1.10;;
23614;SDS011;11985;49.404;7.734;2023-12-29T18:37:57;4.22;;;1.00;;
23614;SDS011;11985;49.404;7.734;2023-12-29T18:42:58;3.35;;;1.13;;
23614;SDS011;11985;49.404;7.734;2023-12-29T18:48:00;5.38;;;1.30;;
23614;SDS011;11985;49.404;7.734;2023-12-29T18:53:03;4.70;;;1.23;;
23614;SDS011;11985;49.404;7.734;2023-12-29T18:58:07;4.13;;;2.15;;
23614;SDS011;11985;49.404;7.734;2023-12-29T19:03:09;5.93;;;1.17;;
23614;SDS011;11985;49.404;7.734;2023-12-29T19:08:12;8.50;;;1.80;;
23614;SDS011;11985;49.404;7.734;2023-12-29T19:13:14;3.35;;;1.17;;
23614;SDS011;11985;49.404;7.734;2023-12-29T19:18:16;3.30;;;1.08;;
23614;SDS011;11985;49.404;7.734;2023-12-29T19:23:19;5.28;;;1.23;;
23614;SDS011;11985;49.404;7.734;2023-12-29T19:28:21;2.67;;;1.40;;
23614;SDS011;11985;49.404;7.734;2023-12-29T19:33:22;2.22;;;0.98;;
23614;SDS011;11985;49.404;7.734;2023-12-29T19:38:25;6.47;;;1.17;;
23614;SDS011;11985;49.404;7.734;2023-12-29T19:43:27;4.85;;;1.50;;
23614;SDS011;11985;49.404;7.734;2023-12-29T19:48:29;7.63;;;1.75;;
23614;SDS011;11985;49.404;7.734;2023-12-29T19:53:33;2.13;;;1.25;;
23614;SDS011;11985;49.404;7.734;2023-12-29T19:58:34;6.05;;;1.45;;
23614;SDS011;11985;49.404;7.734;2023-12-29T20:03:36;6.32;;;1.60;;
23614;SDS011;11985;49.404;7.734;2023-12-29T20:08:39;4.63;;;1.38;;
23614;SDS011;11985;49.404;7.734;2023-12-29T20:13:41;5.80;;;1.52;;
23614;SDS011;11985;49.404;7.734;2023-12-29T20:18:43;7.32;;;1.50;;
23614;SDS011;11985;49.404;7.734;2023-12-29T20:23:47;4.97;;;1.25;;
23614;SDS011;11985;49.404;7.734;2023-12-29T20:28:49;10.52;;;2.10;;
23614;SDS011;11985;49.404;7.734;2023-12-29T20:38:56;3.00;;;1.20;;
23614;SDS011;11985;49.404;7.734;2023-12-29T20:49:01;5.20;;;1.33;;
23614;SDS011;11985;49.404;7.734;2023-12-29T20:54:04;6.80;;;1.35;;
23614;SDS011;11985;49.404;7.734;2023-12-29T20:59:06;3.92;;;1.23;;
23614;SDS011;11985;49.404;7.734;2023-12-29T21:04:08;6.45;;;1.52;;
23614;SDS011;11985;49.404;7.734;2023-12-29T21:09:12;5.38;;;1.17;;
23614;SDS011;11985;49.404;7.734;2023-12-29T21:14:13;3.30;;;1.20;;
23614;SDS011;11985;49.404;7.734;2023-12-29T21:19:15;3.63;;;1.20;;
23614;SDS011;11985;49.404;7.734;2023-12-29T21:24:18;5.88;;;1.80;;
23614;SDS011;11985;49.404;7.734;2023-12-29T21:29:20;4.82;;;1.30;;
23614;SDS011;11985;49.404;7.734;2023-12-29T21:34:21;3.45;;;1.65;;
23614;SDS011;11985;49.404;7.734;2023-12-29T21:39:26;4.05;;;1.38;;
23614;SDS011;11985;49.404;7.734;2023-12-29T21:44:28;4.95;;;1.33;;
23614;SDS011;11985;49.404;7.734;2023-12-29T21:49:29;4.50;;;1.40;;
23614;SDS011;11985;49.404;7.734;2023-12-29T21:54:32;7.15;;;1.40;;
23614;SDS011;11985;49.404;7.734;2023-12-29T21:59:34;3.13;;;1.42;;
23614;SDS011;11985;49.404;7.734;2023-12-29T22:04:36;6.10;;;1.20;;
23614;SDS011;11985;49.404;7.734;2023-12-29T22:09:39;7.00;;;1.33;;
23614;SDS011;11985;49.404;7.734;2023-12-29T22:14:40;5.03;;;1.60;;
23614;SDS011;11985;49.404;7.734;2023-12-29T22:19:42;7.60;;;2.03;;
23614;SDS011;11985;49.404;7.734;2023-12-29T22:24:45;4.10;;;1.45;;
23614;SDS011;11985;49.404;7.734;2023-12-29T22:29:47;5.82;;;1.42;;
23614;SDS011;11985;49.404;7.734;2023-12-29T22:34:48;5.03;;;1.52;;
23614;SDS011;11985;49.404;7.734;2023-12-29T22:39:51;3.33;;;1.77;;
23614;SDS011;11985;49.404;7.734;2023-12-29T22:44:53;6.18;;;1.83;;
23614;SDS011;11985;49.404;7.734;2023-12-29T22:49:54;6.25;;;2.00;;
23614;SDS011;11985;49.404;7.734;2023-12-29T22:54:58;6.75;;;1.88;;
23614;SDS011;11985;49.404;7.734;2023-12-29T22:59:59;5.20;;;2.35;;
23614;SDS011;11985;49.404;7.734;2023-12-29T23:05:02;6.60;;;4.28;;
23614;SDS011;11985;49.404;7.734;2023-12-29T23:10:06;6.72;;;2.42;;
23614;SDS011;11985;49.404;7.734;2023-12-29T23:15:09;5.43;;;1.73;;
23614;SDS011;11985;49.404;7.734;2023-12-29T23:20:12;6.45;;;1.77;;
23614;SDS011;11985;49.404;7.734;2023-12-29T23:25:15;5.03;;;1.70;;
23614;SDS011;11985;49.404;7.734;2023-12-29T23:30:18;4.70;;;1.80;;
23614;SDS011;11985;49.404;7.734;2023-12-29T23:35:19;6.00;;;1.45;;
23614;SDS011;11985;49.404;7.734;2023-12-29T23:40:23;5.53;;;1.40;;
23614;SDS011;11985;49.404;7.734;2023-12-29T23:45:25;8.07;;;1.77;;
23614;SDS011;11985;49.404;7.734;2023-12-29T23:50:28;6.53;;;1.38;;
23614;SDS011;11985;49.404;7.734;2023-12-29T23:55:31;6.05;;;1.35;;
